sensor_id;sensor_type;location;lat;lon;timestamp;P1;durP1;ratioP1;P2;durP2;ratioP2
22646;SDS011;11490;42.726;23.268;2022-07-29T00:00:33;10.48;;;7.35;;
22646;SDS011;11490;42.726;23.268;2022-07-29T00:02:59;10.60;;;7.40;;
22646;SDS011;11490;42.726;23.268;2022-07-29T00:05:24;12.00;;;7.53;;
22646;SDS011;11490;42.726;23.268;2022-07-29T00:07:50;11.30;;;7.25;;
22646;SDS011;11490;42.726;23.268;2022-07-29T00:10:15;10.27;;;6.40;;
22646;SDS011;11490;42.726;23.268;2022-07-29T00:12:41;10.60;;;7.03;;
22646;SDS011;11490;42.726;23.268;2022-07-29T00:15:06;11.20;;;7.00;;
22646;SDS011;11490;42.726;23.268;2022-07-29T00:17:32;13.57;;;6.82;;
22646;SDS011;11490;42.726;23.268;2022-07-29T00:19:59;12.18;;;7.57;;
22646;SDS011;11490;42.726;23.268;2022-07-29T00:22:24;12.18;;;7.40;;
22646;SDS011;11490;42.726;23.268;2022-07-29T00:24:50;10.82;;;7.63;;
22646;SDS011;11490;42.726;23.268;2022-07-29T00:27:16;14.73;;;7.55;;
22646;SDS011;11490;42.726;23.268;2022-07-29T00:29:42;12.60;;;7.40;;
22646;SDS011;11490;42.726;23.268;2022-07-29T00:32:07;13.77;;;7.75;;
22646;SDS011;11490;42.726;23.268;2022-07-29T00:34:33;12.18;;;7.90;;
22646;SDS011;11490;42.726;23.268;2022-07-29T00:37:17;12.18;;;7.53;;
22646;SDS011;11490;42.726;23.268;2022-07-29T00:39:42;10.85;;;7.13;;
22646;SDS011;11490;42.726;23.268;2022-07-29T00:42:08;9.95;;;7.00;;
22646;SDS011;11490;42.726;23.268;2022-07-29T00:44:38;13.18;;;7.78;;
22646;SDS011;11490;42.726;23.268;2022-07-29T00:47:09;11.00;;;7.72;;
22646;SDS011;11490;42.726;23.268;2022-07-29T00:49:36;9.25;;;6.75;;
22646;SDS011;11490;42.726;23.268;2022-07-29T00:52:03;11.25;;;7.43;;
22646;SDS011;11490;42.726;23.268;2022-07-29T00:54:30;12.10;;;6.78;;
22646;SDS011;11490;42.726;23.268;2022-07-29T00:56:59;12.32;;;7.63;;
22646;SDS011;11490;42.726;23.268;2022-07-29T00:59:28;11.40;;;8.13;;
22646;SDS011;11490;42.726;23.268;2022-07-29T01:01:54;12.93;;;8.05;;
22646;SDS011;11490;42.726;23.268;2022-07-29T01:04:20;10.32;;;6.85;;
22646;SDS011;11490;42.726;23.268;2022-07-29T01:06:47;11.52;;;7.60;;
22646;SDS011;11490;42.726;23.268;2022-07-29T01:09:16;12.52;;;7.90;;
22646;SDS011;11490;42.726;23.268;2022-07-29T01:11:44;13.38;;;7.43;;
22646;SDS011;11490;42.726;23.268;2022-07-29T01:14:12;11.65;;;7.53;;
22646;SDS011;11490;42.726;23.268;2022-07-29T01:16:42;12.48;;;7.70;;
22646;SDS011;11490;42.726;23.268;2022-07-29T01:22:25;12.95;;;7.82;;
22646;SDS011;11490;42.726;23.268;2022-07-29T01:30:21;15.85;;;9.02;;
22646;SDS011;11490;42.726;23.268;2022-07-29T01:32:49;11.35;;;8.13;;
22646;SDS011;11490;42.726;23.268;2022-07-29T01:35:31;18.73;;;8.50;;
22646;SDS011;11490;42.726;23.268;2022-07-29T01:38:05;12.50;;;8.55;;
22646;SDS011;11490;42.726;23.268;2022-07-29T01:40:45;12.25;;;7.93;;
22646;SDS011;11490;42.726;23.268;2022-07-29T01:43:15;11.98;;;7.93;;
22646;SDS011;11490;42.726;23.268;2022-07-29T01:45:53;12.68;;;7.43;;
22646;SDS011;11490;42.726;23.268;2022-07-29T01:48:47;11.27;;;7.28;;
22646;SDS011;11490;42.726;23.268;2022-07-29T01:51:18;12.02;;;8.13;;
22646;SDS011;11490;42.726;23.268;2022-07-29T01:53:55;12.65;;;8.18;;
22646;SDS011;11490;42.726;23.268;2022-07-29T01:56:29;15.40;;;8.35;;
22646;SDS011;11490;42.726;23.268;2022-07-29T01:58:58;11.60;;;8.55;;
22646;SDS011;11490;42.726;23.268;2022-07-29T02:01:26;10.45;;;7.07;;
22646;SDS011;11490;42.726;23.268;2022-07-29T02:03:54;12.27;;;7.97;;
22646;SDS011;11490;42.726;23.268;2022-07-29T02:06:22;12.90;;;7.82;;
22646;SDS011;11490;42.726;23.268;2022-07-29T02:08:49;13.02;;;7.25;;
22646;SDS011;11490;42.726;23.268;2022-07-29T02:11:17;14.85;;;8.40;;
22646;SDS011;11490;42.726;23.268;2022-07-29T02:13:43;11.95;;;8.02;;
22646;SDS011;11490;42.726;23.268;2022-07-29T02:16:10;12.90;;;8.48;;
22646;SDS011;11490;42.726;23.268;2022-07-29T02:18:39;18.25;;;7.53;;
22646;SDS011;11490;42.726;23.268;2022-07-29T02:21:06;12.65;;;7.97;;
22646;SDS011;11490;42.726;23.268;2022-07-29T02:23:33;9.75;;;7.07;;
22646;SDS011;11490;42.726;23.268;2022-07-29T02:26:00;10.48;;;7.22;;
22646;SDS011;11490;42.726;23.268;2022-07-29T02:28:28;12.38;;;7.53;;
22646;SDS011;11490;42.726;23.268;2022-07-29T02:30:56;10.88;;;7.60;;
22646;SDS011;11490;42.726;23.268;2022-07-29T02:33:24;11.98;;;8.10;;
22646;SDS011;11490;42.726;23.268;2022-07-29T02:35:51;15.93;;;8.60;;
22646;SDS011;11490;42.726;23.268;2022-07-29T02:38:17;12.32;;;8.52;;
22646;SDS011;11490;42.726;23.268;2022-07-29T02:41:13;12.25;;;7.63;;
22646;SDS011;11490;42.726;23.268;2022-07-29T02:43:48;11.90;;;7.43;;
22646;SDS011;11490;42.726;23.268;2022-07-29T02:46:20;13.95;;;8.95;;
22646;SDS011;11490;42.726;23.268;2022-07-29T02:49:17;12.73;;;8.30;;
22646;SDS011;11490;42.726;23.268;2022-07-29T02:52:19;13.57;;;8.10;;
22646;SDS011;11490;42.726;23.268;2022-07-29T02:54:53;11.75;;;8.20;;
22646;SDS011;11490;42.726;23.268;2022-07-29T02:57:41;15.40;;;8.75;;
22646;SDS011;11490;42.726;23.268;2022-07-29T03:00:09;12.65;;;8.73;;
22646;SDS011;11490;42.726;23.268;2022-07-29T03:02:40;13.18;;;8.77;;
22646;SDS011;11490;42.726;23.268;2022-07-29T03:05:11;13.25;;;8.63;;
22646;SDS011;11490;42.726;23.268;2022-07-29T03:07:40;15.85;;;8.38;;
22646;SDS011;11490;42.726;23.268;2022-07-29T03:10:10;15.85;;;7.70;;
22646;SDS011;11490;42.726;23.268;2022-07-29T03:12:36;13.27;;;7.68;;
22646;SDS011;11490;42.726;23.268;2022-07-29T03:15:02;16.10;;;8.77;;
22646;SDS011;11490;42.726;23.268;2022-07-29T03:17:29;12.77;;;8.80;;
22646;SDS011;11490;42.726;23.268;2022-07-29T03:19:56;12.57;;;8.38;;
22646;SDS011;11490;42.726;23.268;2022-07-29T03:22:23;15.43;;;8.00;;
22646;SDS011;11490;42.726;23.268;2022-07-29T03:24:50;12.45;;;8.02;;
22646;SDS011;11490;42.726;23.268;2022-07-29T03:27:15;15.05;;;8.50;;
22646;SDS011;11490;42.726;23.268;2022-07-29T03:29:41;14.70;;;9.13;;
22646;SDS011;11490;42.726;23.268;2022-07-29T03:32:06;15.70;;;9.43;;
22646;SDS011;11490;42.726;23.268;2022-07-29T03:34:35;13.80;;;9.32;;
22646;SDS011;11490;42.726;23.268;2022-07-29T03:37:01;14.45;;;9.95;;
22646;SDS011;11490;42.726;23.268;2022-07-29T03:39:27;19.02;;;9.10;;
22646;SDS011;11490;42.726;23.268;2022-07-29T03:41:56;21.27;;;9.68;;
22646;SDS011;11490;42.726;23.268;2022-07-29T03:44:24;19.67;;;10.85;;
22646;SDS011;11490;42.726;23.268;2022-07-29T03:46:52;12.90;;;9.00;;
22646;SDS011;11490;42.726;23.268;2022-07-29T03:49:20;17.27;;;9.50;;
22646;SDS011;11490;42.726;23.268;2022-07-29T03:51:47;13.65;;;8.88;;
22646;SDS011;11490;42.726;23.268;2022-07-29T03:54:12;14.88;;;9.50;;
22646;SDS011;11490;42.726;23.268;2022-07-29T03:56:39;13.43;;;8.02;;
22646;SDS011;11490;42.726;23.268;2022-07-29T03:59:07;17.63;;;8.68;;
22646;SDS011;11490;42.726;23.268;2022-07-29T04:01:35;11.90;;;8.50;;
22646;SDS011;11490;42.726;23.268;2022-07-29T04:04:03;15.95;;;9.05;;
22646;SDS011;11490;42.726;23.268;2022-07-29T04:06:37;13.13;;;8.15;;
22646;SDS011;11490;42.726;23.268;2022-07-29T04:09:03;11.60;;;7.80;;
22646;SDS011;11490;42.726;23.268;2022-07-29T04:11:29;14.27;;;9.05;;
22646;SDS011;11490;42.726;23.268;2022-07-29T04:13:54;13.70;;;8.73;;
22646;SDS011;11490;42.726;23.268;2022-07-29T04:16:19;15.95;;;10.13;;
22646;SDS011;11490;42.726;23.268;2022-07-29T04:18:45;14.68;;;9.48;;
22646;SDS011;11490;42.726;23.268;2022-07-29T04:21:10;15.85;;;8.88;;
22646;SDS011;11490;42.726;23.268;2022-07-29T04:23:36;14.18;;;9.52;;
22646;SDS011;11490;42.726;23.268;2022-07-29T04:26:01;16.38;;;8.43;;
22646;SDS011;11490;42.726;23.268;2022-07-29T04:28:26;13.85;;;8.27;;
22646;SDS011;11490;42.726;23.268;2022-07-29T04:30:52;13.07;;;8.60;;
22646;SDS011;11490;42.726;23.268;2022-07-29T04:33:17;15.10;;;9.13;;
22646;SDS011;11490;42.726;23.268;2022-07-29T04:35:43;13.32;;;8.75;;
22646;SDS011;11490;42.726;23.268;2022-07-29T04:38:08;14.05;;;8.23;;
22646;SDS011;11490;42.726;23.268;2022-07-29T04:40:33;13.75;;;8.27;;
22646;SDS011;11490;42.726;23.268;2022-07-29T04:43:00;13.30;;;9.18;;
22646;SDS011;11490;42.726;23.268;2022-07-29T04:45:27;14.63;;;9.02;;
22646;SDS011;11490;42.726;23.268;2022-07-29T04:47:52;14.75;;;9.15;;
22646;SDS011;11490;42.726;23.268;2022-07-29T04:50:18;16.83;;;9.50;;
22646;SDS011;11490;42.726;23.268;2022-07-29T04:52:44;13.30;;;8.77;;
22646;SDS011;11490;42.726;23.268;2022-07-29T04:55:09;12.05;;;8.55;;
22646;SDS011;11490;42.726;23.268;2022-07-29T04:57:34;14.90;;;9.20;;
22646;SDS011;11490;42.726;23.268;2022-07-29T05:00:00;13.90;;;8.52;;
22646;SDS011;11490;42.726;23.268;2022-07-29T05:02:25;14.77;;;8.90;;
22646;SDS011;11490;42.726;23.268;2022-07-29T05:04:51;14.27;;;8.75;;
22646;SDS011;11490;42.726;23.268;2022-07-29T05:07:16;14.25;;;8.13;;
22646;SDS011;11490;42.726;23.268;2022-07-29T05:09:42;20.17;;;9.93;;
22646;SDS011;11490;42.726;23.268;2022-07-29T05:12:07;12.52;;;8.75;;
22646;SDS011;11490;42.726;23.268;2022-07-29T05:14:33;12.55;;;8.82;;
22646;SDS011;11490;42.726;23.268;2022-07-29T05:16:58;15.63;;;9.02;;
22646;SDS011;11490;42.726;23.268;2022-07-29T05:19:24;12.95;;;8.82;;
22646;SDS011;11490;42.726;23.268;2022-07-29T05:21:49;13.02;;;8.63;;
22646;SDS011;11490;42.726;23.268;2022-07-29T05:24:15;16.45;;;8.73;;
22646;SDS011;11490;42.726;23.268;2022-07-29T05:26:41;16.13;;;8.90;;
22646;SDS011;11490;42.726;23.268;2022-07-29T05:29:07;19.05;;;9.88;;
22646;SDS011;11490;42.726;23.268;2022-07-29T05:31:32;13.52;;;9.95;;
22646;SDS011;11490;42.726;23.268;2022-07-29T05:33:58;14.45;;;9.20;;
22646;SDS011;11490;42.726;23.268;2022-07-29T05:36:24;17.48;;;9.63;;
22646;SDS011;11490;42.726;23.268;2022-07-29T05:38:49;13.77;;;9.27;;
22646;SDS011;11490;42.726;23.268;2022-07-29T05:41:16;14.13;;;9.02;;
22646;SDS011;11490;42.726;23.268;2022-07-29T05:43:42;15.40;;;10.00;;
22646;SDS011;11490;42.726;23.268;2022-07-29T05:46:08;17.73;;;10.68;;
22646;SDS011;11490;42.726;23.268;2022-07-29T05:48:33;15.88;;;10.38;;
22646;SDS011;11490;42.726;23.268;2022-07-29T05:50:58;14.85;;;9.13;;
22646;SDS011;11490;42.726;23.268;2022-07-29T05:53:24;16.95;;;10.40;;
22646;SDS011;11490;42.726;23.268;2022-07-29T05:55:49;14.10;;;9.23;;
22646;SDS011;11490;42.726;23.268;2022-07-29T05:58:15;15.88;;;9.93;;
22646;SDS011;11490;42.726;23.268;2022-07-29T06:00:41;18.00;;;9.95;;
22646;SDS011;11490;42.726;23.268;2022-07-29T06:03:06;16.38;;;10.38;;
22646;SDS011;11490;42.726;23.268;2022-07-29T06:05:31;17.35;;;10.93;;
22646;SDS011;11490;42.726;23.268;2022-07-29T06:07:57;19.02;;;10.55;;
22646;SDS011;11490;42.726;23.268;2022-07-29T06:10:22;18.45;;;11.05;;
22646;SDS011;11490;42.726;23.268;2022-07-29T06:12:51;14.43;;;10.23;;
22646;SDS011;11490;42.726;23.268;2022-07-29T06:15:16;17.13;;;10.20;;
22646;SDS011;11490;42.726;23.268;2022-07-29T06:17:41;17.38;;;10.73;;
22646;SDS011;11490;42.726;23.268;2022-07-29T06:20:07;18.17;;;10.13;;
22646;SDS011;11490;42.726;23.268;2022-07-29T06:22:33;16.75;;;10.40;;
22646;SDS011;11490;42.726;23.268;2022-07-29T06:24:58;17.77;;;9.82;;
22646;SDS011;11490;42.726;23.268;2022-07-29T06:27:24;14.90;;;9.82;;
22646;SDS011;11490;42.726;23.268;2022-07-29T06:29:49;16.92;;;10.88;;
22646;SDS011;11490;42.726;23.268;2022-07-29T06:32:17;18.90;;;11.32;;
22646;SDS011;11490;42.726;23.268;2022-07-29T06:34:45;16.88;;;10.80;;
22646;SDS011;11490;42.726;23.268;2022-07-29T06:43:18;18.30;;;10.05;;
22646;SDS011;11490;42.726;23.268;2022-07-29T06:45:44;14.80;;;8.60;;
22646;SDS011;11490;42.726;23.268;2022-07-29T06:48:10;14.10;;;9.52;;
22646;SDS011;11490;42.726;23.268;2022-07-29T06:50:35;13.85;;;9.48;;
22646;SDS011;11490;42.726;23.268;2022-07-29T06:53:01;17.20;;;9.40;;
22646;SDS011;11490;42.726;23.268;2022-07-29T06:55:26;19.63;;;8.68;;
22646;SDS011;11490;42.726;23.268;2022-07-29T06:57:52;12.90;;;9.52;;
22646;SDS011;11490;42.726;23.268;2022-07-29T07:00:17;6.65;;;4.28;;
22646;SDS011;11490;42.726;23.268;2022-07-29T07:02:43;9.00;;;4.85;;
22646;SDS011;11490;42.726;23.268;2022-07-29T07:05:08;6.28;;;4.53;;
22646;SDS011;11490;42.726;23.268;2022-07-29T07:07:33;9.50;;;4.30;;
22646;SDS011;11490;42.726;23.268;2022-07-29T07:09:59;5.60;;;3.45;;
22646;SDS011;11490;42.726;23.268;2022-07-29T07:12:24;7.15;;;3.67;;
22646;SDS011;11490;42.726;23.268;2022-07-29T07:14:50;5.18;;;3.78;;
22646;SDS011;11490;42.726;23.268;2022-07-29T07:17:15;5.50;;;2.90;;
22646;SDS011;11490;42.726;23.268;2022-07-29T07:19:41;5.05;;;3.38;;
22646;SDS011;11490;42.726;23.268;2022-07-29T07:22:06;9.02;;;3.65;;
22646;SDS011;11490;42.726;23.268;2022-07-29T07:24:31;8.18;;;4.15;;
22646;SDS011;11490;42.726;23.268;2022-07-29T07:26:58;7.50;;;3.28;;
22646;SDS011;11490;42.726;23.268;2022-07-29T07:29:24;4.07;;;2.90;;
22646;SDS011;11490;42.726;23.268;2022-07-29T07:31:49;4.53;;;3.50;;
22646;SDS011;11490;42.726;23.268;2022-07-29T07:34:15;4.47;;;2.90;;
22646;SDS011;11490;42.726;23.268;2022-07-29T07:36:40;4.53;;;3.13;;
22646;SDS011;11490;42.726;23.268;2022-07-29T07:39:06;8.15;;;3.47;;
22646;SDS011;11490;42.726;23.268;2022-07-29T07:41:31;3.88;;;2.65;;
22646;SDS011;11490;42.726;23.268;2022-07-29T07:43:57;5.05;;;3.63;;
22646;SDS011;11490;42.726;23.268;2022-07-29T07:46:22;8.95;;;3.13;;
22646;SDS011;11490;42.726;23.268;2022-07-29T07:48:48;5.82;;;3.42;;
22646;SDS011;11490;42.726;23.268;2022-07-29T07:51:13;6.75;;;3.05;;
22646;SDS011;11490;42.726;23.268;2022-07-29T07:53:39;3.72;;;2.65;;
22646;SDS011;11490;42.726;23.268;2022-07-29T07:56:04;4.65;;;3.22;;
22646;SDS011;11490;42.726;23.268;2022-07-29T07:58:31;4.65;;;3.15;;
22646;SDS011;11490;42.726;23.268;2022-07-29T08:00:58;6.78;;;3.45;;
22646;SDS011;11490;42.726;23.268;2022-07-29T08:03:23;3.72;;;2.83;;
22646;SDS011;11490;42.726;23.268;2022-07-29T08:05:49;4.72;;;3.25;;
22646;SDS011;11490;42.726;23.268;2022-07-29T08:08:16;7.18;;;3.33;;
22646;SDS011;11490;42.726;23.268;2022-07-29T08:10:42;5.22;;;3.22;;
22646;SDS011;11490;42.726;23.268;2022-07-29T08:13:24;6.30;;;3.28;;
22646;SDS011;11490;42.726;23.268;2022-07-29T08:15:52;4.90;;;3.40;;
22646;SDS011;11490;42.726;23.268;2022-07-29T08:18:29;6.57;;;3.50;;
22646;SDS011;11490;42.726;23.268;2022-07-29T08:20:55;5.45;;;3.20;;
22646;SDS011;11490;42.726;23.268;2022-07-29T08:23:21;6.28;;;3.08;;
22646;SDS011;11490;42.726;23.268;2022-07-29T08:25:48;5.03;;;3.63;;
22646;SDS011;11490;42.726;23.268;2022-07-29T08:28:14;3.65;;;2.85;;
22646;SDS011;11490;42.726;23.268;2022-07-29T08:30:39;5.50;;;3.05;;
22646;SDS011;11490;42.726;23.268;2022-07-29T08:33:05;5.10;;;3.40;;
22646;SDS011;11490;42.726;23.268;2022-07-29T08:35:30;4.30;;;3.25;;
22646;SDS011;11490;42.726;23.268;2022-07-29T08:37:56;5.25;;;3.22;;
22646;SDS011;11490;42.726;23.268;2022-07-29T08:40:22;5.75;;;3.13;;
22646;SDS011;11490;42.726;23.268;2022-07-29T08:42:49;5.75;;;3.50;;
22646;SDS011;11490;42.726;23.268;2022-07-29T08:45:14;4.45;;;3.35;;
22646;SDS011;11490;42.726;23.268;2022-07-29T08:47:40;4.85;;;3.13;;
22646;SDS011;11490;42.726;23.268;2022-07-29T08:50:07;4.53;;;2.75;;
22646;SDS011;11490;42.726;23.268;2022-07-29T08:52:35;4.15;;;3.03;;
22646;SDS011;11490;42.726;23.268;2022-07-29T08:55:03;6.05;;;3.45;;
22646;SDS011;11490;42.726;23.268;2022-07-29T08:57:30;6.20;;;3.30;;
22646;SDS011;11490;42.726;23.268;2022-07-29T08:59:56;6.32;;;3.08;;
22646;SDS011;11490;42.726;23.268;2022-07-29T09:02:24;7.05;;;2.55;;
22646;SDS011;11490;42.726;23.268;2022-07-29T09:04:54;4.00;;;2.70;;
22646;SDS011;11490;42.726;23.268;2022-07-29T09:07:21;4.45;;;2.65;;
22646;SDS011;11490;42.726;23.268;2022-07-29T09:09:46;4.55;;;2.78;;
22646;SDS011;11490;42.726;23.268;2022-07-29T09:12:12;4.25;;;2.58;;
22646;SDS011;11490;42.726;23.268;2022-07-29T09:14:38;3.65;;;2.67;;
22646;SDS011;11490;42.726;23.268;2022-07-29T09:17:04;3.15;;;2.25;;
22646;SDS011;11490;42.726;23.268;2022-07-29T09:19:32;4.43;;;2.45;;
22646;SDS011;11490;42.726;23.268;2022-07-29T09:22:03;4.25;;;2.72;;
22646;SDS011;11490;42.726;23.268;2022-07-29T09:24:40;4.43;;;2.65;;
22646;SDS011;11490;42.726;23.268;2022-07-29T09:27:10;5.57;;;2.60;;
22646;SDS011;11490;42.726;23.268;2022-07-29T09:30:01;6.85;;;3.55;;
22646;SDS011;11490;42.726;23.268;2022-07-29T09:32:30;3.33;;;2.22;;
22646;SDS011;11490;42.726;23.268;2022-07-29T09:35:18;3.70;;;2.50;;
22646;SDS011;11490;42.726;23.268;2022-07-29T09:37:44;3.47;;;2.08;;
22646;SDS011;11490;42.726;23.268;2022-07-29T09:40:14;11.70;;;7.07;;
22646;SDS011;11490;42.726;23.268;2022-07-29T09:42:45;3.75;;;2.42;;
22646;SDS011;11490;42.726;23.268;2022-07-29T09:45:11;3.45;;;2.25;;
22646;SDS011;11490;42.726;23.268;2022-07-29T09:47:45;4.97;;;2.40;;
22646;SDS011;11490;42.726;23.268;2022-07-29T09:50:13;4.22;;;2.63;;
22646;SDS011;11490;42.726;23.268;2022-07-29T09:52:47;6.28;;;3.03;;
22646;SDS011;11490;42.726;23.268;2022-07-29T09:55:14;5.85;;;2.78;;
22646;SDS011;11490;42.726;23.268;2022-07-29T09:57:40;5.47;;;2.70;;
22646;SDS011;11490;42.726;23.268;2022-07-29T10:00:13;4.22;;;2.35;;
22646;SDS011;11490;42.726;23.268;2022-07-29T10:02:41;4.40;;;2.90;;
22646;SDS011;11490;42.726;23.268;2022-07-29T10:08:04;6.25;;;3.50;;
22646;SDS011;11490;42.726;23.268;2022-07-29T10:10:34;7.07;;;3.08;;
22646;SDS011;11490;42.726;23.268;2022-07-29T10:13:02;3.85;;;2.80;;
22646;SDS011;11490;42.726;23.268;2022-07-29T10:15:33;4.20;;;2.95;;
22646;SDS011;11490;42.726;23.268;2022-07-29T10:18:05;4.10;;;2.78;;
22646;SDS011;11490;42.726;23.268;2022-07-29T10:20:32;4.80;;;3.10;;
22646;SDS011;11490;42.726;23.268;2022-07-29T10:22:58;4.57;;;2.88;;
22646;SDS011;11490;42.726;23.268;2022-07-29T10:25:23;8.43;;;3.08;;
22646;SDS011;11490;42.726;23.268;2022-07-29T10:27:51;4.95;;;2.65;;
22646;SDS011;11490;42.726;23.268;2022-07-29T10:30:17;11.52;;;6.85;;
22646;SDS011;11490;42.726;23.268;2022-07-29T10:38:43;4.20;;;2.60;;
22646;SDS011;11490;42.726;23.268;2022-07-29T10:44:00;5.32;;;3.05;;
22646;SDS011;11490;42.726;23.268;2022-07-29T10:46:28;3.53;;;2.42;;
22646;SDS011;11490;42.726;23.268;2022-07-29T10:49:07;4.85;;;2.33;;
22646;SDS011;11490;42.726;23.268;2022-07-29T10:54:40;6.55;;;2.63;;
22646;SDS011;11490;42.726;23.268;2022-07-29T11:05:02;3.88;;;2.40;;
22646;SDS011;11490;42.726;23.268;2022-07-29T11:07:31;5.07;;;2.38;;
22646;SDS011;11490;42.726;23.268;2022-07-29T11:15:09;4.45;;;2.90;;
22646;SDS011;11490;42.726;23.268;2022-07-29T11:18:07;4.07;;;2.60;;
22646;SDS011;11490;42.726;23.268;2022-07-29T11:20:45;5.90;;;3.13;;
22646;SDS011;11490;42.726;23.268;2022-07-29T11:25:43;5.55;;;2.60;;
22646;SDS011;11490;42.726;23.268;2022-07-29T11:28:16;5.18;;;3.40;;
22646;SDS011;11490;42.726;23.268;2022-07-29T11:30:50;5.78;;;3.47;;
22646;SDS011;11490;42.726;23.268;2022-07-29T11:33:30;4.35;;;2.83;;
22646;SDS011;11490;42.726;23.268;2022-07-29T11:36:09;4.30;;;3.10;;
22646;SDS011;11490;42.726;23.268;2022-07-29T11:38:40;7.85;;;2.92;;
22646;SDS011;11490;42.726;23.268;2022-07-29T11:49:10;4.35;;;2.75;;
22646;SDS011;11490;42.726;23.268;2022-07-29T11:51:39;6.45;;;3.03;;
22646;SDS011;11490;42.726;23.268;2022-07-29T11:54:07;4.25;;;3.10;;
22646;SDS011;11490;42.726;23.268;2022-07-29T11:56:38;3.17;;;2.20;;
22646;SDS011;11490;42.726;23.268;2022-07-29T11:59:08;4.82;;;3.05;;
22646;SDS011;11490;42.726;23.268;2022-07-29T12:01:35;5.57;;;3.20;;
22646;SDS011;11490;42.726;23.268;2022-07-29T12:04:04;5.13;;;3.28;;
22646;SDS011;11490;42.726;23.268;2022-07-29T12:06:31;5.18;;;3.58;;
22646;SDS011;11490;42.726;23.268;2022-07-29T12:08:57;7.75;;;3.38;;
22646;SDS011;11490;42.726;23.268;2022-07-29T12:11:22;5.53;;;3.65;;
22646;SDS011;11490;42.726;23.268;2022-07-29T12:13:49;5.43;;;3.05;;
22646;SDS011;11490;42.726;23.268;2022-07-29T12:16:15;3.92;;;2.95;;
22646;SDS011;11490;42.726;23.268;2022-07-29T12:18:41;4.55;;;2.95;;
22646;SDS011;11490;42.726;23.268;2022-07-29T12:21:06;6.10;;;3.22;;
22646;SDS011;11490;42.726;23.268;2022-07-29T12:23:33;4.75;;;3.08;;
22646;SDS011;11490;42.726;23.268;2022-07-29T12:25:59;6.13;;;3.30;;
22646;SDS011;11490;42.726;23.268;2022-07-29T12:28:27;7.45;;;4.03;;
22646;SDS011;11490;42.726;23.268;2022-07-29T12:30:53;4.78;;;3.13;;
22646;SDS011;11490;42.726;23.268;2022-07-29T12:33:23;6.63;;;4.28;;
22646;SDS011;11490;42.726;23.268;2022-07-29T12:35:57;5.68;;;3.95;;
22646;SDS011;11490;42.726;23.268;2022-07-29T12:38:25;5.97;;;3.75;;
22646;SDS011;11490;42.726;23.268;2022-07-29T12:40:51;4.60;;;3.13;;
22646;SDS011;11490;42.726;23.268;2022-07-29T12:43:19;4.38;;;2.80;;
22646;SDS011;11490;42.726;23.268;2022-07-29T12:45:47;5.07;;;3.22;;
22646;SDS011;11490;42.726;23.268;2022-07-29T12:48:15;4.45;;;2.85;;
22646;SDS011;11490;42.726;23.268;2022-07-29T12:50:54;4.80;;;3.50;;
22646;SDS011;11490;42.726;23.268;2022-07-29T12:53:24;5.32;;;3.58;;
22646;SDS011;11490;42.726;23.268;2022-07-29T12:55:51;4.85;;;3.72;;
22646;SDS011;11490;42.726;23.268;2022-07-29T13:01:07;5.40;;;3.42;;
22646;SDS011;11490;42.726;23.268;2022-07-29T13:03:43;4.82;;;3.40;;
22646;SDS011;11490;42.726;23.268;2022-07-29T13:08:58;5.40;;;3.70;;
22646;SDS011;11490;42.726;23.268;2022-07-29T13:11:34;5.68;;;3.28;;
22646;SDS011;11490;42.726;23.268;2022-07-29T13:14:02;5.40;;;3.10;;
22646;SDS011;11490;42.726;23.268;2022-07-29T13:16:29;4.90;;;3.63;;
22646;SDS011;11490;42.726;23.268;2022-07-29T13:19:04;4.88;;;3.50;;
22646;SDS011;11490;42.726;23.268;2022-07-29T13:21:37;5.28;;;3.47;;
22646;SDS011;11490;42.726;23.268;2022-07-29T13:24:05;4.80;;;3.45;;
22646;SDS011;11490;42.726;23.268;2022-07-29T13:26:31;6.07;;;4.15;;
22646;SDS011;11490;42.726;23.268;2022-07-29T13:28:57;5.43;;;3.63;;
22646;SDS011;11490;42.726;23.268;2022-07-29T13:31:22;6.00;;;3.63;;
22646;SDS011;11490;42.726;23.268;2022-07-29T13:33:48;5.82;;;3.75;;
22646;SDS011;11490;42.726;23.268;2022-07-29T13:36:13;6.30;;;4.00;;
22646;SDS011;11490;42.726;23.268;2022-07-29T13:38:39;4.82;;;3.38;;
22646;SDS011;11490;42.726;23.268;2022-07-29T13:41:04;5.18;;;4.03;;
22646;SDS011;11490;42.726;23.268;2022-07-29T13:43:32;6.03;;;3.72;;
22646;SDS011;11490;42.726;23.268;2022-07-29T13:46:06;6.25;;;3.78;;
22646;SDS011;11490;42.726;23.268;2022-07-29T13:48:32;4.53;;;3.58;;
22646;SDS011;11490;42.726;23.268;2022-07-29T13:51:00;4.43;;;3.10;;
22646;SDS011;11490;42.726;23.268;2022-07-29T13:53:26;6.05;;;3.22;;
22646;SDS011;11490;42.726;23.268;2022-07-29T13:55:52;5.28;;;3.67;;
22646;SDS011;11490;42.726;23.268;2022-07-29T13:58:18;5.50;;;3.45;;
22646;SDS011;11490;42.726;23.268;2022-07-29T14:00:44;6.88;;;3.00;;
22646;SDS011;11490;42.726;23.268;2022-07-29T14:03:12;5.38;;;3.42;;
22646;SDS011;11490;42.726;23.268;2022-07-29T14:05:43;5.65;;;3.58;;
22646;SDS011;11490;42.726;23.268;2022-07-29T14:08:09;4.85;;;3.13;;
22646;SDS011;11490;42.726;23.268;2022-07-29T14:10:34;5.15;;;3.65;;
22646;SDS011;11490;42.726;23.268;2022-07-29T14:13:00;5.78;;;3.95;;
22646;SDS011;11490;42.726;23.268;2022-07-29T14:15:25;6.05;;;4.38;;
22646;SDS011;11490;42.726;23.268;2022-07-29T14:17:51;6.35;;;3.33;;
22646;SDS011;11490;42.726;23.268;2022-07-29T14:20:16;6.28;;;3.70;;
22646;SDS011;11490;42.726;23.268;2022-07-29T14:22:42;4.90;;;3.53;;
22646;SDS011;11490;42.726;23.268;2022-07-29T14:25:08;5.28;;;3.47;;
22646;SDS011;11490;42.726;23.268;2022-07-29T14:27:34;5.22;;;3.40;;
22646;SDS011;11490;42.726;23.268;2022-07-29T14:29:59;5.80;;;3.92;;
22646;SDS011;11490;42.726;23.268;2022-07-29T14:32:24;5.40;;;3.60;;
22646;SDS011;11490;42.726;23.268;2022-07-29T14:34:50;6.50;;;3.38;;
22646;SDS011;11490;42.726;23.268;2022-07-29T14:37:15;5.07;;;4.00;;
22646;SDS011;11490;42.726;23.268;2022-07-29T14:39:41;5.82;;;3.67;;
22646;SDS011;11490;42.726;23.268;2022-07-29T14:42:06;5.30;;;3.70;;
22646;SDS011;11490;42.726;23.268;2022-07-29T14:44:32;5.43;;;3.72;;
22646;SDS011;11490;42.726;23.268;2022-07-29T14:46:58;7.07;;;3.95;;
22646;SDS011;11490;42.726;23.268;2022-07-29T14:49:25;6.68;;;4.25;;
22646;SDS011;11490;42.726;23.268;2022-07-29T14:51:51;7.88;;;3.85;;
22646;SDS011;11490;42.726;23.268;2022-07-29T14:54:16;6.50;;;4.03;;
22646;SDS011;11490;42.726;23.268;2022-07-29T14:56:42;5.88;;;3.75;;
22646;SDS011;11490;42.726;23.268;2022-07-29T14:59:07;5.97;;;3.72;;
22646;SDS011;11490;42.726;23.268;2022-07-29T15:01:33;6.03;;;3.90;;
22646;SDS011;11490;42.726;23.268;2022-07-29T15:03:58;6.20;;;3.42;;
22646;SDS011;11490;42.726;23.268;2022-07-29T15:06:23;8.98;;;5.78;;
22646;SDS011;11490;42.726;23.268;2022-07-29T15:08:49;4.50;;;3.40;;
22646;SDS011;11490;42.726;23.268;2022-07-29T15:11:22;5.03;;;3.75;;
22646;SDS011;11490;42.726;23.268;2022-07-29T15:13:47;5.25;;;3.45;;
22646;SDS011;11490;42.726;23.268;2022-07-29T15:16:13;6.03;;;3.53;;
22646;SDS011;11490;42.726;23.268;2022-07-29T15:18:47;4.60;;;3.45;;
22646;SDS011;11490;42.726;23.268;2022-07-29T15:21:12;6.18;;;3.65;;
22646;SDS011;11490;42.726;23.268;2022-07-29T15:23:38;6.00;;;3.75;;
22646;SDS011;11490;42.726;23.268;2022-07-29T15:26:04;5.20;;;3.17;;
22646;SDS011;11490;42.726;23.268;2022-07-29T15:28:29;6.47;;;3.72;;
22646;SDS011;11490;42.726;23.268;2022-07-29T15:30:55;7.70;;;4.15;;